Portada
METAR-TAF:

METAR-TAF

Aeropuertos :

Hawkins Field

Jackson, Misisipi, Estados Unidos

latitud: 32-20-05N, longitud: 090-13-21W, altitud: 104 m

Observación

El informe se hizo hace 14 minutos, a las 01:53 UTC
Viento calma
Temperatura 22°C
Humedad 73%
Presión 1015 hPa
Visibilidad: 16.1 km
Cielo nuboso a una altura de 9000 ft

METAR: KHKS 290153Z AUTO 00000KT 10SM BKN090 22/17 A2998 RMK AO2 SLP146 T02220172

Hora: 21:07 (02:07 UTC)

Pronóstico

El informe se hizo hace 2 horas y 27 minutos, a las 23:40 UTC
Pronóstico válido del 29 a las 00 UTC al 29 a las 24 UTC
Viento 5 kt del sur-suroeste
Visibilidad: 10 km
Escasas nubes a una altura de 4000 ft
Cielo nuboso a una altura de 12000 ft
A partir de las 29 a las 1500 UTC
Viento 5 kt del oeste
Visibilidad: 10 km
Cielo nuboso a una altura de 5000 ft

TAF: KHKS 282340Z 2900/2924 21005KT P6SM FEW040 BKN120 FM291500 28005KT P6SM BKN050

Observaciones y pronósticos meteorológicos de más de 4000 aeropuertos (mensajes METAR y TAF).

Los puntos amarillos y rojos representan las estaciones disponibles.

Ponga el ratón en el punto deseado para ver el nombre de la estación.

Haga clic para ver las observaciones y los pronósticos meteorológicos.

Para cambiar el mapa : haga clic en los botones verdes con una cruz de color negro para hacer un zoom, en el botón verde con un guión para alejar o en las flechas verdes para mapas adyacentes.


METAR-TAF: